Time;durP1;ratioP1;P1;durP2;ratioP2;P2;SDS_P1;SDS_P2;PMS_P1;PMS_P2;Temp;Humidity;BMP_temperature;BMP_pressure;BME280_temperature;BME280_humidity;BME280_pressure;Samples;Min_cycle;Max_cycle;Signal;HPM_P1;HPM_P2
2023/03/26 00:01:09;;;;;;;25.90;4.65;;;9.80;99.90;;;;;;5015071;28;20053;-61
2023/03/26 00:03:37;;;;;;;45.53;6.28;;;9.80;99.90;;;;;;5028686;28;20050;-58
2023/03/26 00:06:07;;;;;;;31.70;5.00;;;9.80;99.90;;;;;;5020634;28;20448;-60
2023/03/26 00:08:34;;;;;;;32.80;6.03;;;9.80;99.90;;;;;;5009605;28;20045;-58
2023/03/26 00:11:02;;;;;;;35.63;7.35;;;9.80;99.90;;;;;;5004412;28;20415;-59
2023/03/26 00:13:29;;;;;;;31.17;4.88;;;9.80;99.90;;;;;;4994258;28;20077;-59
2023/03/26 00:15:56;;;;;;;35.70;5.35;;;9.80;99.90;;;;;;5008631;28;20053;-60
2023/03/26 00:18:28;;;;;;;37.00;7.95;;;9.80;99.90;;;;;;4999213;28;20050;-59
2023/03/26 00:20:57;;;;;;;33.80;6.75;;;9.80;99.90;;;;;;5013587;28;20571;-59
2023/03/26 00:23:24;;;;;;;32.72;5.47;;;9.80;99.90;;;;;;5005435;28;20053;-59
2023/03/26 00:25:50;;;;;;;45.72;5.18;;;9.70;99.90;;;;;;5022553;28;20058;-60
2023/03/26 00:28:20;;;;;;;26.80;5.25;;;9.70;99.90;;;;;;5017257;28;20518;-59
2023/03/26 00:30:47;;;;;;;33.03;7.03;;;9.70;99.90;;;;;;5022937;28;20117;-58
2023/03/26 00:33:17;;;;;;;41.20;5.57;;;9.70;99.90;;;;;;4994488;28;20409;-59
2023/03/26 00:35:47;;;;;;;46.08;6.22;;;9.70;99.90;;;;;;5004520;28;20373;-59
2023/03/26 00:38:14;;;;;;;25.80;5.65;;;9.70;99.90;;;;;;5014025;28;20054;-58
2023/03/26 00:40:42;;;;;;;37.38;5.43;;;9.70;99.90;;;;;;5024148;28;20060;-57
2023/03/26 00:43:17;;;;;;;41.80;5.78;;;9.70;99.90;;;;;;5014830;28;20048;-58
2023/03/26 00:45:48;;;;;;;32.85;6.45;;;9.70;99.90;;;;;;5024545;28;20057;-57
2023/03/26 00:48:15;;;;;;;36.97;6.38;;;9.70;99.90;;;;;;5020819;28;20083;-59
2023/03/26 00:50:43;;;;;;;33.78;6.53;;;9.60;99.90;;;;;;5023608;28;20045;-58
2023/03/26 00:53:14;;;;;;;31.30;5.65;;;9.60;99.90;;;;;;5023416;28;20081;-61
2023/03/26 00:55:51;;;;;;;34.15;6.72;;;9.60;99.90;;;;;;5013032;28;20060;-61
2023/03/26 00:58:21;;;;;;;43.40;6.43;;;9.60;99.90;;;;;;4993451;28;20347;-60
2023/03/26 01:01:17;;;;;;;31.95;4.85;;;9.60;99.90;;;;;;5019025;28;20087;-60
2023/03/26 01:03:49;;;;;;;29.15;4.75;;;9.50;99.90;;;;;;5018117;28;20474;-59
2023/03/26 01:06:35;;;;;;;27.52;6.80;;;9.70;99.90;;;;;;5018612;28;20041;-62
2023/03/26 01:09:19;;;;;;;45.05;5.40;;;9.70;99.90;;;;;;5015720;28;20076;-61
2023/03/26 01:11:47;;;;;;;28.23;5.30;;;9.70;99.90;;;;;;5024943;28;20111;-60
2023/03/26 01:14:22;;;;;;;40.38;6.97;;;9.60;99.90;;;;;;5022545;28;20484;-60
2023/03/26 01:17:00;;;;;;;22.50;3.97;;;9.60;99.90;;;;;;5010951;28;20060;-61
2023/03/26 01:19:55;;;;;;;25.08;5.85;;;9.70;99.90;;;;;;5003809;28;20046;-62
2023/03/26 01:22:24;;;;;;;33.92;6.25;;;9.70;99.90;;;;;;5010516;28;20053;-63
2023/03/26 01:25:00;;;;;;;31.42;4.88;;;9.70;99.90;;;;;;5012895;28;20049;-59
2023/03/26 01:27:48;;;;;;;41.63;6.38;;;9.80;99.90;;;;;;5010259;28;20100;-60
2023/03/26 01:30:41;;;;;;;28.13;5.47;;;9.80;99.90;;;;;;4995503;28;20086;-59
2023/03/26 01:33:12;;;;;;;40.33;6.47;;;9.80;99.90;;;;;;5003495;28;20531;-58
2023/03/26 01:36:00;;;;;;;37.05;5.43;;;9.70;99.90;;;;;;5013830;28;20052;-59
2023/03/26 01:38:30;;;;;;;32.25;5.72;;;9.70;99.90;;;;;;5011486;28;20078;-60
2023/03/26 01:41:00;;;;;;;25.15;5.50;;;9.70;99.90;;;;;;5001729;28;20134;-60
2023/03/26 01:43:34;;;;;;;28.33;4.93;;;9.70;99.90;;;;;;4993391;28;20471;-60
2023/03/26 01:46:04;;;;;;;33.40;7.13;;;9.70;99.90;;;;;;4998046;28;20132;-59
2023/03/26 01:48:35;;;;;;;30.67;6.47;;;9.70;99.90;;;;;;5023959;28;20449;-58
2023/03/26 01:51:03;;;;;;;31.27;6.68;;;9.60;99.90;;;;;;5019973;28;20081;-58
2023/03/26 01:53:31;;;;;;;30.25;5.43;;;9.60;99.90;;;;;;5009667;28;20100;-56
2023/03/26 01:56:06;;;;;;;43.10;9.25;;;9.60;99.90;;;;;;5013286;28;20053;-59
2023/03/26 01:58:36;;;;;;;30.50;4.95;;;9.60;99.90;;;;;;5006355;28;20084;-58
2023/03/26 02:01:23;;;;;;;36.65;4.60;;;9.60;99.90;;;;;;4998722;28;20052;-58
2023/03/26 02:03:55;;;;;;;31.70;5.25;;;9.60;99.90;;;;;;5004090;28;20049;-59
2023/03/26 02:06:25;;;;;;;29.88;4.53;;;9.60;99.90;;;;;;5004133;28;20056;-57
2023/03/26 02:09:01;;;;;;;26.23;4.50;;;9.60;99.90;;;;;;4997603;28;20049;-59
2023/03/26 02:11:28;;;;;;;23.23;5.20;;;9.60;99.90;;;;;;5002272;28;20521;-59
2023/03/26 02:14:03;;;;;;;31.20;4.68;;;9.60;99.90;;;;;;5031008;28;20124;-58
2023/03/26 02:16:29;;;;;;;23.60;4.15;;;9.60;99.90;;;;;;4994280;28;20135;-57
2023/03/26 02:18:58;;;;;;;31.77;5.18;;;9.60;99.90;;;;;;5019899;28;20135;-58
2023/03/26 02:21:25;;;;;;;28.40;4.82;;;9.70;99.90;;;;;;5028816;28;20141;-56
2023/03/26 02:24:01;;;;;;;37.28;4.57;;;9.60;99.90;;;;;;5017568;28;20198;-58
2023/03/26 02:26:29;;;;;;;27.98;5.80;;;9.70;99.90;;;;;;5022163;28;20408;-58
2023/03/26 02:28:57;;;;;;;17.58;4.32;;;9.70;99.90;;;;;;5018334;28;20045;-58
2023/03/26 02:31:25;;;;;;;31.30;4.45;;;9.70;99.90;;;;;;5021178;28;20045;-57
2023/03/26 02:33:55;;;;;;;32.42;6.00;;;9.70;99.90;;;;;;5013645;28;20133;-59
2023/03/26 02:36:26;;;;;;;20.08;3.92;;;9.70;99.90;;;;;;5003786;28;20049;-58
2023/03/26 02:38:53;;;;;;;26.98;4.05;;;9.70;99.90;;;;;;4683052;28;9999969;-57
2023/03/26 02:41:20;;;;;;;21.17;5.70;;;9.70;99.90;;;;;;5021729;28;20081;-58
2023/03/26 02:43:47;;;;;;;18.05;3.92;;;9.80;99.90;;;;;;5023073;28;20046;-58
2023/03/26 02:46:13;;;;;;;21.50;3.80;;;9.70;99.90;;;;;;5019808;28;20056;-59
2023/03/26 02:48:41;;;;;;;13.82;3.45;;;9.80;99.90;;;;;;5022231;28;20061;-57
2023/03/26 02:51:08;;;;;;;27.05;5.10;;;9.80;99.90;;;;;;5028859;28;20057;-55
2023/03/26 02:53:36;;;;;;;17.77;3.30;;;9.80;99.90;;;;;;5024004;28;20042;-59
2023/03/26 02:56:03;;;;;;;14.70;4.50;;;9.80;99.90;;;;;;5028219;28;20132;-58
2023/03/26 02:58:30;;;;;;;18.13;2.90;;;9.80;99.90;;;;;;5025595;28;20041;-58
2023/03/26 03:00:57;;;;;;;12.10;2.92;;;9.70;99.90;;;;;;5020920;28;20051;-57
2023/03/26 03:03:24;;;;;;;9.88;2.05;;;9.70;99.90;;;;;;5025711;28;20060;-58
2023/03/26 03:05:52;;;;;;;20.77;4.03;;;9.70;99.90;;;;;;5017522;28;20056;-57
2023/03/26 03:08:23;;;;;;;16.05;3.45;;;9.70;99.90;;;;;;5004246;28;20050;-58
2023/03/26 03:11:06;;;;;;;20.77;3.55;;;9.60;99.90;;;;;;5015435;28;20050;-58
2023/03/26 03:13:33;;;;;;;16.33;2.67;;;9.70;99.90;;;;;;5018500;28;20050;-57
2023/03/26 03:15:59;;;;;;;10.50;2.30;;;9.70;99.90;;;;;;5031198;28;20076;-58
2023/03/26 03:18:29;;;;;;;11.05;2.35;;;9.70;99.90;;;;;;5018759;28;20048;-58
2023/03/26 03:20:59;;;;;;;11.63;2.20;;;9.70;99.90;;;;;;5026514;28;20555;-57
2023/03/26 03:23:26;;;;;;;11.57;2.30;;;9.70;99.90;;;;;;5016733;28;20488;-58
2023/03/26 03:25:55;;;;;;;8.60;2.83;;;9.70;99.90;;;;;;5025495;28;20060;-57
2023/03/26 03:28:23;;;;;;;13.75;2.72;;;9.70;99.90;;;;;;5022948;28;20048;-58
2023/03/26 03:30:56;;;;;;;9.50;1.58;;;9.70;99.90;;;;;;5014818;28;20052;-57
2023/03/26 03:33:23;;;;;;;7.32;2.08;;;9.70;99.90;;;;;;5016552;28;20115;-57
2023/03/26 03:35:51;;;;;;;9.27;2.75;;;9.70;99.90;;;;;;5022440;28;20522;-57
2023/03/26 03:38:18;;;;;;;10.25;2.78;;;9.60;99.90;;;;;;5017609;28;20524;-56
2023/03/26 03:40:44;;;;;;;6.43;1.77;;;9.50;99.90;;;;;;5021158;28;20107;-58
2023/03/26 03:43:11;;;;;;;10.82;2.25;;;9.50;99.90;;;;;;5021102;28;20125;-59
2023/03/26 03:45:38;;;;;;;7.47;1.98;;;9.50;99.90;;;;;;5020634;28;20060;-57
2023/03/26 03:48:05;;;;;;;6.55;2.45;;;9.40;99.90;;;;;;5015218;28;20045;-58
2023/03/26 03:50:32;;;;;;;11.55;1.92;;;9.40;99.90;;;;;;5000742;28;20503;-59
2023/03/26 03:53:02;;;;;;;8.48;2.08;;;9.30;99.90;;;;;;5024885;28;20164;-59
2023/03/26 03:55:28;;;;;;;6.88;1.48;;;9.30;99.90;;;;;;5025283;28;20140;-58
2023/03/26 03:57:57;;;;;;;11.82;2.33;;;9.20;99.90;;;;;;5026981;28;20045;-59
2023/03/26 04:00:23;;;;;;;12.25;1.60;;;9.10;99.90;;;;;;5017485;28;20046;-60
2023/03/26 04:02:53;;;;;;;8.48;1.52;;;9.10;99.90;;;;;;5024205;28;20124;-59
2023/03/26 04:05:20;;;;;;;6.05;1.58;;;9.10;99.90;;;;;;5021371;28;20555;-60
2023/03/26 04:07:47;;;;;;;5.47;2.03;;;9.10;99.90;;;;;;5024935;28;20072;-58
2023/03/26 04:10:14;;;;;;;8.45;1.38;;;9.10;99.90;;;;;;5015022;28;20137;-59
2023/03/26 04:12:41;;;;;;;7.75;1.50;;;9.10;99.90;;;;;;5026558;28;20057;-59
2023/03/26 04:15:08;;;;;;;4.70;1.27;;;8.90;99.90;;;;;;5021547;28;20053;-59
2023/03/26 04:17:41;;;;;;;5.63;1.65;;;8.90;99.90;;;;;;4996800;28;20418;-60
2023/03/26 04:20:13;;;;;;;3.63;1.08;;;8.90;99.90;;;;;;5016360;28;20057;-59
2023/03/26 04:22:41;;;;;;;2.53;1.42;;;8.80;99.90;;;;;;5023847;28;20061;-63
2023/03/26 04:25:09;;;;;;;6.18;1.33;;;8.80;99.90;;;;;;5015951;28;20140;-59
2023/03/26 04:27:36;;;;;;;9.95;1.90;;;8.70;99.90;;;;;;5022893;28;20129;-56
2023/03/26 04:30:05;;;;;;;6.78;1.73;;;8.60;99.90;;;;;;5003879;28;20060;-58
2023/03/26 04:32:34;;;;;;;2.38;0.55;;;8.60;99.90;;;;;;5000241;28;20038;-58
2023/03/26 04:35:02;;;;;;;4.68;0.95;;;8.60;99.90;;;;;;5001001;28;20049;-61
2023/03/26 04:37:38;;;;;;;11.52;1.00;;;8.60;99.90;;;;;;5014394;28;20378;-60
2023/03/26 04:40:12;;;;;;;4.28;1.25;;;8.50;99.90;;;;;;5017752;28;20421;-59
2023/03/26 04:42:44;;;;;;;6.93;1.35;;;8.50;99.90;;;;;;4998197;28;20050;-60
2023/03/26 04:45:16;;;;;;;3.47;0.70;;;8.40;99.90;;;;;;5019133;28;20054;-59
2023/03/26 04:47:45;;;;;;;4.88;1.67;;;8.40;99.90;;;;;;5002521;28;20046;-58
2023/03/26 04:50:12;;;;;;;6.65;0.88;;;8.40;99.90;;;;;;5018368;28;20451;-59
2023/03/26 04:52:39;;;;;;;2.33;0.80;;;8.30;99.90;;;;;;5022868;28;20038;-58
2023/03/26 04:55:12;;;;;;;4.40;0.77;;;8.20;99.90;;;;;;5006382;28;20049;-56
2023/03/26 04:57:42;;;;;;;4.95;0.90;;;8.20;99.90;;;;;;5003261;28;20073;-60
2023/03/26 05:00:15;;;;;;;5.65;1.55;;;8.20;99.90;;;;;;4995823;28;20046;-58
2023/03/26 05:02:42;;;;;;;1.63;0.63;;;8.20;99.90;;;;;;4984474;28;20084;-57
2023/03/26 05:05:09;;;;;;;4.32;0.70;;;8.20;99.90;;;;;;4988642;28;20042;-59
2023/03/26 05:07:36;;;;;;;5.43;0.88;;;8.40;99.90;;;;;;5015546;28;20444;-59
2023/03/26 05:10:03;;;;;;;1.45;0.73;;;8.20;99.90;;;;;;5007670;28;20052;-58
2023/03/26 05:12:30;;;;;;;1.48;0.40;;;8.20;99.90;;;;;;5022349;28;20049;-58
2023/03/26 05:14:56;;;;;;;6.63;1.65;;;8.10;99.90;;;;;;5010269;28;20077;-59
2023/03/26 05:17:23;;;;;;;2.58;0.70;;;8.10;99.90;;;;;;5014051;28;20129;-57
2023/03/26 05:19:50;;;;;;;1.30;0.77;;;8.10;99.90;;;;;;5024346;28;20096;-58
2023/03/26 05:22:18;;;;;;;2.58;0.70;;;8.20;99.90;;;;;;5000578;28;20054;-58
2023/03/26 05:24:44;;;;;;;2.42;0.77;;;8.20;99.90;;;;;;5022501;28;20492;-58
2023/03/26 05:27:15;;;;;;;4.88;0.80;;;8.10;99.90;;;;;;5014996;28;20046;-57
2023/03/26 05:29:42;;;;;;;4.30;1.00;;;8.10;99.90;;;;;;5022144;28;20049;-56
2023/03/26 05:32:09;;;;;;;1.55;0.70;;;8.10;99.90;;;;;;5021293;28;20096;-57
2023/03/26 05:34:38;;;;;;;1.90;1.00;;;8.00;99.90;;;;;;5019634;28;20553;-56
2023/03/26 05:37:05;;;;;;;4.75;1.13;;;8.00;99.90;;;;;;5001371;28;20049;-58
2023/03/26 05:39:32;;;;;;;3.10;0.73;;;8.00;99.90;;;;;;5017906;28;20128;-58
2023/03/26 05:42:02;;;;;;;6.65;0.82;;;8.00;99.90;;;;;;5002627;28;20514;-57
2023/03/26 05:44:29;;;;;;;4.30;2.80;;;8.00;99.90;;;;;;5018322;28;20104;-57
2023/03/26 05:46:55;;;;;;;5.07;1.25;;;8.00;99.90;;;;;;5012145;28;20049;-57
2023/03/26 05:49:22;;;;;;;1.42;0.70;;;8.00;99.90;;;;;;4999661;28;20388;-58
2023/03/26 05:51:49;;;;;;;7.53;1.20;;;8.00;99.90;;;;;;5022995;28;20053;-58
2023/03/26 05:54:16;;;;;;;2.35;0.77;;;7.90;99.90;;;;;;5022117;28;20068;-59
2023/03/26 05:56:42;;;;;;;3.38;0.70;;;7.80;99.90;;;;;;5010031;28;20049;-58
2023/03/26 05:59:10;;;;;;;6.78;0.80;;;7.80;99.90;;;;;;5020210;28;20514;-59
2023/03/26 06:01:37;;;;;;;1.42;0.57;;;7.80;99.90;;;;;;4662582;28;9999864;-58
2023/03/26 06:04:04;;;;;;;2.17;0.85;;;7.80;99.90;;;;;;5014839;28;20068;-58
2023/03/26 06:06:31;;;;;;;2.78;1.10;;;7.80;99.90;;;;;;5006838;28;20408;-58
2023/03/26 06:08:59;;;;;;;1.88;0.90;;;7.80;99.90;;;;;;5017877;28;20045;-59
2023/03/26 06:11:28;;;;;;;2.50;0.55;;;7.80;99.90;;;;;;5014548;28;20058;-58
2023/03/26 06:13:55;;;;;;;5.50;0.80;;;7.80;99.90;;;;;;5015268;28;20044;-58
2023/03/26 06:16:22;;;;;;;3.05;0.70;;;7.70;99.90;;;;;;5015432;28;20050;-57
2023/03/26 06:18:53;;;;;;;1.38;0.70;;;7.70;99.90;;;;;;5014730;28;20460;-57
2023/03/26 06:21:24;;;;;;;4.20;0.80;;;7.60;99.90;;;;;;5010940;28;20080;-57
2023/03/26 06:23:51;;;;;;;2.50;0.80;;;7.60;99.90;;;;;;5011835;28;20060;-58
2023/03/26 06:26:19;;;;;;;1.38;0.50;;;7.60;99.90;;;;;;4995308;28;20109;-58
2023/03/26 06:28:46;;;;;;;3.00;0.65;;;7.70;99.90;;;;;;5012357;28;20460;-58
2023/03/26 06:31:13;;;;;;;1.02;0.63;;;7.70;99.90;;;;;;5013827;28;20107;-57
2023/03/26 06:33:40;;;;;;;7.05;0.90;;;7.80;99.90;;;;;;4999382;28;20126;-58
2023/03/26 06:36:07;;;;;;;2.03;0.63;;;7.80;99.90;;;;;;5015094;28;20081;-58
2023/03/26 06:38:34;;;;;;;2.30;1.00;;;7.80;99.90;;;;;;5011551;28;20104;-58
2023/03/26 06:41:02;;;;;;;1.63;0.70;;;7.80;99.90;;;;;;5015374;28;20042;-57
2023/03/26 06:43:32;;;;;;;3.85;0.88;;;7.70;99.90;;;;;;5010791;28;20041;-59
2023/03/26 06:46:02;;;;;;;1.90;0.60;;;7.60;99.90;;;;;;5019584;28;20420;-56
2023/03/26 06:48:29;;;;;;;1.50;0.70;;;7.50;99.90;;;;;;4988473;28;20046;-58
2023/03/26 06:50:56;;;;;;;4.88;1.58;;;7.40;99.90;;;;;;5011014;28;20516;-59
2023/03/26 06:53:23;;;;;;;1.80;0.77;;;7.50;99.90;;;;;;5004130;28;20519;-59
2023/03/26 06:55:51;;;;;;;3.67;1.65;;;7.60;99.90;;;;;;5015581;28;20053;-59
2023/03/26 06:58:17;;;;;;;2.80;1.35;;;7.70;99.90;;;;;;5025482;28;20049;-60
2023/03/26 07:00:44;;;;;;;4.25;1.38;;;7.60;99.90;;;;;;5008772;28;20175;-59
2023/03/26 07:03:12;;;;;;;5.90;1.00;;;7.50;99.90;;;;;;5023549;28;20058;-59
2023/03/26 07:05:42;;;;;;;3.65;1.40;;;7.50;99.90;;;;;;4997064;28;20058;-60
2023/03/26 07:08:08;;;;;;;4.82;1.35;;;7.50;99.90;;;;;;5022358;28;20049;-59
2023/03/26 07:10:35;;;;;;;4.50;1.10;;;7.50;99.90;;;;;;5019828;28;20052;-59
2023/03/26 07:13:02;;;;;;;1.27;0.70;;;7.50;99.90;;;;;;5014033;28;20116;-57
2023/03/26 07:15:29;;;;;;;7.30;2.13;;;7.50;99.90;;;;;;4998002;28;20049;-59
2023/03/26 07:17:56;;;;;;;2.78;0.73;;;7.60;99.90;;;;;;5018445;28;20053;-58
2023/03/26 07:20:23;;;;;;;0.55;0.47;;;7.50;99.90;;;;;;5019406;28;20081;-58
2023/03/26 07:22:50;;;;;;;2.78;1.13;;;7.40;99.90;;;;;;5018722;28;20057;-56
2023/03/26 07:25:17;;;;;;;2.70;0.77;;;7.50;99.90;;;;;;5010818;28;20492;-58
2023/03/26 07:27:52;;;;;;;4.15;0.90;;;7.50;99.90;;;;;;5018834;28;20058;-56
2023/03/26 07:30:30;;;;;;;2.17;0.90;;;7.60;99.90;;;;;;5011667;28;20053;-59
2023/03/26 07:33:13;;;;;;;4.18;1.02;;;7.60;99.90;;;;;;5000924;28;20057;-58
2023/03/26 07:36:18;;;;;;;1.30;0.73;;;7.70;99.90;;;;;;4994720;28;20057;-57
2023/03/26 07:39:07;;;;;;;1.13;0.73;;;7.60;99.90;;;;;;4975656;28;20049;-57
2023/03/26 07:41:58;;;;;;;0.68;0.40;;;7.60;99.90;;;;;;5019068;28;20084;-56
2023/03/26 07:44:37;;;;;;;3.70;0.85;;;7.60;99.90;;;;;;4994918;28;20054;-58
2023/03/26 07:47:14;;;;;;;3.63;0.93;;;7.60;99.90;;;;;;5013839;28;20049;-56
2023/03/26 07:49:42;;;;;;;1.08;0.40;;;7.70;99.90;;;;;;5004811;28;20279;-56
2023/03/26 07:52:10;;;;;;;1.38;0.57;;;7.70;99.90;;;;;;5015785;28;20583;-57
2023/03/26 07:54:37;;;;;;;2.70;0.60;;;7.70;99.90;;;;;;5026380;28;20053;-54
2023/03/26 07:57:05;;;;;;;5.03;0.90;;;7.70;99.90;;;;;;5018310;28;20045;-55
2023/03/26 07:59:39;;;;;;;3.75;0.75;;;7.60;99.90;;;;;;4996175;28;20112;-57
2023/03/26 08:02:35;;;;;;;4.80;0.63;;;7.70;99.90;;;;;;5015924;28;20060;-57
2023/03/26 08:05:24;;;;;;;1.15;0.43;;;7.80;99.90;;;;;;5020781;28;20045;-58
2023/03/26 08:08:21;;;;;;;1.85;0.70;;;7.70;99.90;;;;;;4983262;28;20049;-58
2023/03/26 08:11:10;;;;;;;1.33;0.60;;;7.70;99.90;;;;;;5004932;28;20162;-59
2023/03/26 08:13:50;;;;;;;2.40;0.50;;;7.80;99.90;;;;;;5012601;28;20453;-57
2023/03/26 08:16:22;;;;;;;4.05;1.27;;;7.80;99.90;;;;;;5024198;28;20060;-59
2023/03/26 08:19:06;;;;;;;1.65;0.80;;;7.80;99.90;;;;;;4996793;28;20144;-56
2023/03/26 08:21:54;;;;;;;1.13;0.70;;;7.80;99.90;;;;;;5023124;28;20122;-57
2023/03/26 08:24:35;;;;;;;1.27;0.95;;;7.90;99.90;;;;;;5000527;28;20057;-57
2023/03/26 08:27:27;;;;;;;3.58;0.98;;;7.90;99.90;;;;;;4993145;28;20131;-59
2023/03/26 08:30:03;;;;;;;7.05;0.98;;;7.90;99.90;;;;;;5013139;28;20519;-57
2023/03/26 08:32:30;;;;;;;1.13;0.85;;;7.80;99.90;;;;;;4993772;28;20050;-60
2023/03/26 08:34:58;;;;;;;3.33;1.48;;;7.70;99.90;;;;;;5012532;28;20053;-60
2023/03/26 08:37:26;;;;;;;2.05;1.00;;;7.60;99.90;;;;;;5016674;28;20054;-58
2023/03/26 08:39:53;;;;;;;3.08;1.20;;;7.70;99.90;;;;;;5013572;28;20048;-59
2023/03/26 08:42:44;;;;;;;3.10;0.90;;;7.80;99.90;;;;;;5017985;28;20060;-59
2023/03/26 08:45:26;;;;;;;3.42;1.35;;;7.80;99.90;;;;;;5001862;28;20042;-59
2023/03/26 08:48:08;;;;;;;0.70;0.50;;;7.70;99.90;;;;;;5008300;28;20103;-58
2023/03/26 08:50:57;;;;;;;1.42;0.93;;;7.70;99.90;;;;;;5005657;28;20045;-59
2023/03/26 08:53:45;;;;;;;2.03;0.73;;;7.80;99.90;;;;;;5002432;28;20132;-58
2023/03/26 08:56:50;;;;;;;2.47;1.05;;;7.80;99.90;;;;;;5016244;28;20053;-57
2023/03/26 08:59:41;;;;;;;7.18;1.27;;;7.80;99.90;;;;;;5012033;28;20061;-59
2023/03/26 09:02:23;;;;;;;1.25;0.88;;;7.80;99.90;;;;;;5013744;28;20061;-58
2023/03/26 09:05:09;;;;;;;2.78;1.02;;;7.80;99.90;;;;;;5019351;28;20092;-58
2023/03/26 09:07:59;;;;;;;4.20;0.88;;;7.80;99.90;;;;;;5006551;28;20053;-59
2023/03/26 09:10:42;;;;;;;0.73;0.50;;;7.90;99.90;;;;;;5007716;28;20049;-59
2023/03/26 09:13:27;;;;;;;1.77;0.75;;;7.90;99.90;;;;;;5001671;28;20084;-59
2023/03/26 09:16:12;;;;;;;3.53;0.90;;;8.00;99.90;;;;;;5010037;28;20401;-59
2023/03/26 09:18:57;;;;;;;1.40;0.80;;;8.00;99.90;;;;;;5019527;28;20045;-59
2023/03/26 09:21:37;;;;;;;1.52;1.00;;;8.00;99.90;;;;;;5015753;28;20123;-59
2023/03/26 09:24:06;;;;;;;3.03;0.70;;;8.00;99.90;;;;;;5009130;28;20045;-58
2023/03/26 09:26:36;;;;;;;2.17;1.10;;;8.00;99.90;;;;;;5007637;28;20129;-59
2023/03/26 09:29:18;;;;;;;1.70;0.93;;;8.10;99.90;;;;;;5008951;28;20049;-59
2023/03/26 09:32:22;;;;;;;1.20;0.70;;;8.20;99.90;;;;;;5013564;28;20453;-60
2023/03/26 09:35:07;;;;;;;0.53;0.53;;;8.20;99.90;;;;;;5015164;28;20061;-60
2023/03/26 09:37:56;;;;;;;1.98;1.10;;;8.20;99.90;;;;;;5010595;28;20064;-58
2023/03/26 09:40:47;;;;;;;3.17;0.90;;;8.20;99.90;;;;;;5012227;28;20057;-59
2023/03/26 09:43:36;;;;;;;3.33;0.93;;;8.20;99.90;;;;;;5014638;28;20492;-59
2023/03/26 09:46:06;;;;;;;1.77;0.77;;;8.20;99.90;;;;;;5008346;28;20092;-61
2023/03/26 09:48:43;;;;;;;4.72;0.98;;;8.20;99.90;;;;;;5014089;28;20704;-60
2023/03/26 09:51:25;;;;;;;2.95;1.08;;;8.20;99.90;;;;;;4993471;28;20129;-62
2023/03/26 09:54:05;;;;;;;2.05;0.82;;;8.20;99.90;;;;;;5016134;28;20415;-60
2023/03/26 09:56:37;;;;;;;5.75;1.58;;;8.20;99.90;;;;;;5013707;28;20081;-60
2023/03/26 09:59:23;;;;;;;1.90;1.17;;;8.20;99.90;;;;;;4996730;28;20054;-60
2023/03/26 10:02:19;;;;;;;0.55;0.52;;;8.30;99.90;;;;;;5017723;28;20180;-61
2023/03/26 10:05:19;;;;;;;1.75;1.13;;;8.20;99.90;;;;;;4980973;28;20050;-60
2023/03/26 10:07:56;;;;;;;1.92;1.00;;;8.20;99.90;;;;;;4996222;28;20046;-58
2023/03/26 10:10:41;;;;;;;3.30;1.50;;;8.30;99.90;;;;;;4999284;28;20054;-60
2023/03/26 10:13:28;;;;;;;4.28;1.85;;;8.30;99.90;;;;;;5012466;28;20497;-59
2023/03/26 10:16:13;;;;;;;1.85;1.38;;;8.30;99.90;;;;;;5015214;28;20050;-59
2023/03/26 10:18:45;;;;;;;1.80;1.10;;;8.50;99.90;;;;;;5017003;28;20740;-60
2023/03/26 10:21:49;;;;;;;3.45;1.13;;;8.50;99.90;;;;;;4992391;28;20480;-60
2023/03/26 10:24:19;;;;;;;2.33;1.17;;;8.50;99.90;;;;;;5015170;28;20103;-60
2023/03/26 10:27:07;;;;;;;1.52;1.20;;;8.60;99.90;;;;;;5013169;28;20057;-60
2023/03/26 10:29:58;;;;;;;2.97;1.10;;;8.70;99.90;;;;;;5018341;28;20081;-60
2023/03/26 10:33:03;;;;;;;3.40;1.23;;;8.80;99.90;;;;;;4997518;28;20137;-60
2023/03/26 10:35:39;;;;;;;;;;;8.90;99.90;;;;;;4979979;28;20046;-59
2023/03/26 10:38:17;;;;;;;1.73;1.13;;;9.00;99.90;;;;;;4999033;28;19932;-60
2023/03/26 10:40:54;;;;;;;5.32;1.83;;;9.00;99.90;;;;;;5016186;28;20514;-64
2023/03/26 10:43:42;;;;;;;2.05;1.20;;;9.00;99.90;;;;;;5019230;28;20383;-60
2023/03/26 10:46:33;;;;;;;3.65;1.30;;;8.90;99.90;;;;;;5001730;28;20049;-59
2023/03/26 10:49:19;;;;;;;1.88;0.82;;;9.00;99.90;;;;;;4988202;28;20073;-60
2023/03/26 10:51:58;;;;;;;2.13;1.02;;;9.10;99.90;;;;;;4993644;28;20505;-59
2023/03/26 10:54:42;;;;;;;3.05;1.20;;;9.20;99.90;;;;;;5003254;28;20068;-61
2023/03/26 10:57:32;;;;;;;;;;;9.30;99.90;;;;;;5022260;28;20057;-58
2023/03/26 11:00:23;;;;;;;3.35;1.52;;;9.30;99.90;;;;;;5012713;28;19968;-59
2023/03/26 11:03:18;;;;;;;4.85;1.45;;;9.30;99.90;;;;;;5018983;28;20045;-58
2023/03/26 11:06:16;;;;;;;3.50;1.20;;;9.30;99.90;;;;;;5003104;28;20434;-58
2023/03/26 11:08:49;;;;;;;3.03;1.40;;;9.40;99.90;;;;;;5005384;28;20133;-59
2023/03/26 11:11:45;;;;;;;2.80;1.13;;;9.50;99.90;;;;;;4998529;28;20049;-61
2023/03/26 11:14:24;;;;;;;1.75;0.80;;;9.50;99.90;;;;;;5003527;28;20060;-60
2023/03/26 11:17:28;;;;;;;2.38;1.08;;;9.60;99.90;;;;;;4980433;28;20042;-58
2023/03/26 11:20:24;;;;;;;3.15;1.20;;;9.60;99.90;;;;;;5004689;28;20160;-58
2023/03/26 11:23:00;;;;;;;;;;;9.70;99.90;;;;;;4996167;28;20050;-59
2023/03/26 11:25:35;;;;;;;2.25;0.85;;;9.60;99.90;;;;;;5014880;28;19964;-59
2023/03/26 11:28:14;;;;;;;1.40;0.73;;;9.70;99.90;;;;;;5004166;28;20127;-58
2023/03/26 11:30:45;;;;;;;3.95;1.02;;;9.80;99.90;;;;;;5024535;28;20089;-59
2023/03/26 11:33:21;;;;;;;2.13;1.05;;;9.80;99.90;;;;;;5001359;28;20103;-59
2023/03/26 11:35:50;;;;;;;1.33;0.73;;;9.80;99.90;;;;;;5022944;28;20057;-58
2023/03/26 11:38:52;;;;;;;1.88;0.90;;;9.90;99.90;;;;;;5023555;28;20048;-58
2023/03/26 11:41:22;;;;;;;2.83;1.05;;;9.90;99.90;;;;;;5011267;28;20050;-59
2023/03/26 11:44:04;;;;;;;4.45;1.15;;;9.90;99.90;;;;;;5015364;28;20501;-58
2023/03/26 11:46:30;;;;;;;3.20;0.98;;;10.00;99.90;;;;;;5003183;28;20050;-59
2023/03/26 11:49:00;;;;;;;2.15;0.80;;;10.00;99.90;;;;;;4995917;28;20100;-59
2023/03/26 11:51:33;;;;;;;2.72;0.85;;;10.10;99.90;;;;;;5003109;28;20348;-59
2023/03/26 11:54:00;;;;;;;2.13;0.70;;;10.10;99.90;;;;;;5013730;28;20042;-58
2023/03/26 11:56:35;;;;;;;1.55;0.75;;;10.20;99.90;;;;;;4998452;28;20119;-56
2023/03/26 11:59:16;;;;;;;3.10;0.90;;;10.20;99.90;;;;;;5021109;28;20077;-59
2023/03/26 12:02:03;;;;;;;2.20;0.60;;;10.20;99.90;;;;;;5019467;28;20070;-57
2023/03/26 12:04:34;;;;;;;2.60;0.88;;;10.30;99.90;;;;;;4996952;28;20049;-58
2023/03/26 12:07:17;;;;;;;3.05;0.68;;;10.40;99.90;;;;;;5017176;28;20045;-59
2023/03/26 12:10:03;;;;;;;1.45;0.55;;;10.50;99.90;;;;;;5005625;28;20057;-59
2023/03/26 12:12:45;;;;;;;1.35;0.80;;;10.40;99.90;;;;;;5001597;28;20116;-59
2023/03/26 12:15:17;;;;;;;1.65;0.90;;;10.20;99.90;;;;;;4998807;28;20052;-59
2023/03/26 12:17:52;;;;;;;0.88;0.45;;;10.10;99.90;;;;;;4997554;28;20071;-59
2023/03/26 12:20:25;;;;;;;5.03;1.10;;;10.10;99.90;;;;;;5006841;28;20069;-59
2023/03/26 12:23:00;;;;;;;1.55;0.90;;;10.00;99.90;;;;;;5017973;28;20061;-57
2023/03/26 12:25:28;;;;;;;2.28;1.00;;;9.90;99.90;;;;;;4987898;28;20210;-59
2023/03/26 12:28:15;;;;;;;2.72;0.73;;;9.80;99.90;;;;;;5002576;28;20486;-59
2023/03/26 12:31:03;;;;;;;1.40;0.60;;;9.70;99.90;;;;;;5016001;28;20049;-59
2023/03/26 12:33:33;;;;;;;3.13;1.33;;;9.70;99.90;;;;;;5020494;28;20054;-60
2023/03/26 12:36:37;;;;;;;0.70;0.50;;;9.70;99.90;;;;;;5003038;28;20041;-59
2023/03/26 12:39:43;;;;;;;0.60;0.50;;;9.80;99.90;;;;;;4953287;28;20055;-59
2023/03/26 12:42:31;;;;;;;0.45;0.30;;;9.80;99.90;;;;;;5014741;28;20283;-59
2023/03/26 12:45:30;;;;;;;5.32;0.68;;;9.70;99.90;;;;;;5009939;28;20053;-57
2023/03/26 12:47:57;;;;;;;3.67;1.13;;;9.60;99.90;;;;;;5021354;28;20053;-58
2023/03/26 12:51:05;;;;;;;3.08;1.17;;;9.60;99.90;;;;;;5001697;28;20448;-59
2023/03/26 12:53:33;;;;;;;3.78;0.82;;;9.60;99.90;;;;;;4996111;28;20132;-55
2023/03/26 12:56:20;;;;;;;5.70;1.67;;;9.50;99.90;;;;;;4982804;28;20041;-59
2023/03/26 12:59:06;;;;;;;4.05;1.38;;;9.50;99.90;;;;;;5000088;28;20057;-59
2023/03/26 13:02:14;;;;;;;5.90;1.30;;;9.50;99.90;;;;;;5003636;28;20060;-58
2023/03/26 13:05:14;;;;;;;9.15;2.13;;;9.60;99.90;;;;;;5017020;28;20493;-58
2023/03/26 13:08:09;;;;;;;9.05;1.90;;;9.70;99.90;;;;;;4987934;28;20050;-59
2023/03/26 13:10:58;;;;;;;8.90;1.77;;;9.60;99.90;;;;;;5001946;28;20056;-59
2023/03/26 13:13:55;;;;;;;11.10;2.72;;;9.60;99.90;;;;;;5007203;28;20534;-60
2023/03/26 13:16:31;;;;;;;7.90;2.35;;;9.50;99.90;;;;;;5018631;28;20080;-59
2023/03/26 13:19:08;;;;;;;19.27;2.63;;;9.50;99.90;;;;;;4997233;28;20056;-59
2023/03/26 13:21:45;;;;;;;11.13;2.45;;;9.40;99.90;;;;;;5005494;28;20136;-59
2023/03/26 13:24:37;;;;;;;12.52;3.15;;;9.40;99.90;;;;;;5001571;28;20349;-57
2023/03/26 13:27:10;;;;;;;18.42;2.28;;;9.50;99.90;;;;;;4996470;28;20107;-58
2023/03/26 13:29:44;;;;;;;10.25;2.60;;;9.40;99.90;;;;;;4998859;28;20045;-59
2023/03/26 13:32:33;;;;;;;20.73;3.53;;;9.40;99.90;;;;;;5005315;28;20071;-59
2023/03/26 13:35:32;;;;;;;19.35;3.47;;;9.30;99.90;;;;;;5021040;28;20128;-58